Terminal Aerodrome Forecast
Issued by NWS Charleston, WV

Current Version | Previous Version | Graphics & Text | Print | Product List | Glossary On
Versions: 1 2 3 4 5 6 7 8 9 10 11 12 13 14 15 16 17 18 19 20 21 22 23 24 25 26 27 28 29
000
FTUS41 KRLX 190800 AAA
TAFPKB
TAF AMD
KPKB 190828Z 1908/2006 00000KT 5SM BR OVC080
      TEMPO 1908/1910 3SM BR SCT002
     FM191000 00000KT 3SM BR SCT002
      TEMPO 1910/1913 1/2SM FG BKN002
     FM191300 00000KT 4SM BR SCT035
     FM191500 00000KT P6SM SCT140
     FM191700 VRB03KT P6SM BKN035
     FM192100 VRB03KT P6SM VCTS BKN035CB
     FM200300 00000KT 5SM SHRA BR VCTS BKN035CB=

USA.gov is the U.S. government's official web portal to all federal, state and local government web resources and services.